Sea Commander — VGGC — position and weather

sailwx.info

Track history (hours):
 
Tides and Currents Weather Stations Pressure Air Temp Water Temp Dewpoint Dewpoint Depression Visibility Wind Speed Wind Dir Waves Ship Positions

Sea Commander

Last reported at 2014-Oct-16 21:33 UTC. Time now 2014-Oct-21 05:36 UTC.
Position N 54°21' W 130°16'.

Length 44 m; draft 7 m.

Type: Tug. MMSI: 316001043.

Date/timePositionNaut miles runAvg speedWind from/ knotsBaromVisibWave heightAir tempDewpointWater temp
2014-Oct-16 21:33N 54°21' W 130°16'0 0.0
2014-Oct-16 20:33N 54°21' W 130°16'3 2.6
2014-Oct-16 19:33N 54°19' W 130°19'0 0.0
2014-Oct-16 18:33N 54°19' W 130°19'0 0.0
2014-Oct-16 17:33N 54°19' W 130°19'  
2014-Oct-11 13:07N 54°18' W 130°53'4 7.9
2014-Oct-11 12:33N 54°16' W 130°47'9 8.8
2014-Oct-11 11:33N 54°11' W 130°34'205 7.9
2014-Oct-10 09:33N 51°12' W 127°51'8 8.1
2014-Oct-10 08:33N 51°05' W 127°44'8 8.3
2014-Oct-10 07:33N 50°59' W 127°34'8 7.6
2014-Oct-10 06:33N 50°55' W 127°24'9 8.6
2014-Oct-10 05:33N 50°49' W 127°14'10 8.9
2014-Oct-10 04:25N 50°44' W 127°00'8 8.6
2014-Oct-10 03:30N 50°40' W 126°50'1210.1
2014-Oct-10 02:17N 50°31' W 126°36'1910.5
2014-Oct-10 00:31N 50°28' W 126°08'29 7.3
2014-Oct-09 20:32N 50°18' W 125°25'9 9.1
2014-Oct-09 19:33N 50°09' W 125°21'1311.5
2014-Oct-09 18:25N 49°58' W 125°10'9 9.7
2014-Oct-09 17:27N 49°52' W 124°60'910.3
2014-Oct-09 16:33N 49°45' W 124°49'1110.5
2014-Oct-09 15:32N 49°38' W 124°37'1010.4
2014-Oct-09 14:33N 49°34' W 124°23'1010.4
2014-Oct-09 13:33N 49°29' W 124°09'9 9.1
2014-Oct-09 12:33N 49°24' W 123°57'9 9.1
2014-Oct-09 11:33N 49°19' W 123°45'9 9.2
2014-Oct-09 10:33N 49°13' W 123°35'9 9.3
2014-Oct-09 09:33N 49°07' W 123°24'4 4.3
2014-Oct-09 08:34N 49°04' W 123°20'1 1.1
2014-Oct-09 07:34N 49°05' W 123°20'1111.5
2014-Oct-09 06:33N 49°08' W 123°04'8 0.5
2014-Oct-08 16:31N 49°12' W 122°54'1 1.2
2014-Oct-08 15:34N 49°13' W 122°52'6 5.8
2014-Oct-08 14:34N 49°12' W 122°44'1 0.5
2014-Oct-08 12:33N 49°11' W 122°43'7 6.9
2014-Oct-08 11:33N 49°13' W 122°54'  
Track history (hours):
 
Tides and Currents Weather Stations Pressure Air Temp Water Temp Dewpoint Dewpoint Depression Visibility Wind Speed Wind Dir Waves Ship Positions

Sea Commander

Last reported at 2014-Oct-16 21:33 UTC. Time now 2014-Oct-21 05:36 UTC.
Position N 54°21' W 130°16'.

Length 44 m; draft 7 m.

Type: Tug. MMSI: 316001043.

Date/timePositionNaut miles runAvg speedWind from/ knotsBaromVisibWave heightAir tempDewpointWater temp
2014-Oct-16 21:33N 54°21' W 130°16'0 0.0
2014-Oct-16 20:33N 54°21' W 130°16'3 2.6
2014-Oct-16 19:33N 54°19' W 130°19'0 0.0
2014-Oct-16 18:33N 54°19' W 130°19'0 0.0
2014-Oct-16 17:33N 54°19' W 130°19'  
2014-Oct-11 13:07N 54°18' W 130°53'4 7.9
2014-Oct-11 12:33N 54°16' W 130°47'9 8.8
2014-Oct-11 11:33N 54°11' W 130°34'205 7.9
2014-Oct-10 09:33N 51°12' W 127°51'8 8.1
2014-Oct-10 08:33N 51°05' W 127°44'8 8.3
2014-Oct-10 07:33N 50°59' W 127°34'8 7.6
2014-Oct-10 06:33N 50°55' W 127°24'9 8.6
2014-Oct-10 05:33N 50°49' W 127°14'10 8.9
2014-Oct-10 04:25N 50°44' W 127°00'8 8.6
2014-Oct-10 03:30N 50°40' W 126°50'1210.1
2014-Oct-10 02:17N 50°31' W 126°36'1910.5
2014-Oct-10 00:31N 50°28' W 126°08'29 7.3
2014-Oct-09 20:32N 50°18' W 125°25'9 9.1
2014-Oct-09 19:33N 50°09' W 125°21'1311.5
2014-Oct-09 18:25N 49°58' W 125°10'9 9.7
2014-Oct-09 17:27N 49°52' W 124°60'910.3
2014-Oct-09 16:33N 49°45' W 124°49'1110.5
2014-Oct-09 15:32N 49°38' W 124°37'1010.4
2014-Oct-09 14:33N 49°34' W 124°23'1010.4
2014-Oct-09 13:33N 49°29' W 124°09'9 9.1
2014-Oct-09 12:33N 49°24' W 123°57'9 9.1
2014-Oct-09 11:33N 49°19' W 123°45'9 9.2
2014-Oct-09 10:33N 49°13' W 123°35'9 9.3
2014-Oct-09 09:33N 49°07' W 123°24'4 4.3
2014-Oct-09 08:34N 49°04' W 123°20'1 1.1
2014-Oct-09 07:34N 49°05' W 123°20'1111.5
2014-Oct-09 06:33N 49°08' W 123°04'8 0.5
2014-Oct-08 16:31N 49°12' W 122°54'1 1.2
2014-Oct-08 15:34N 49°13' W 122°52'6 5.8
2014-Oct-08 14:34N 49°12' W 122°44'1 0.5
2014-Oct-08 12:33N 49°11' W 122°43'7 6.9
2014-Oct-08 11:33N 49°13' W 122°54'  

Dump ship's entire track history